Time;durP1;ratioP1;P1;durP2;ratioP2;P2;SDS_P1;SDS_P2;PMS_P1;PMS_P2;Temp;Humidity;BMP_temperature;BMP_pressure;BME280_temperature;BME280_humidity;BME280_pressure;Samples;Min_cycle;Max_cycle;Signal;HPM_P1;HPM_P2
2021/01/21 00:03:27;;;;;;;242.10;186.75;;;18.30;44.40;;;;;;4440435;59;21142;-31
2021/01/21 00:08:28;;;;;;;247.60;187.07;;;18.30;44.20;;;;;;4440561;63;21547;-32
2021/01/21 00:13:29;;;;;;;244.45;185.75;;;18.30;44.10;;;;;;4453097;59;21132;-34
2021/01/21 00:18:30;;;;;;;241.65;182.32;;;18.30;44.10;;;;;;4450836;59;21114;-27
2021/01/21 00:23:31;;;;;;;242.85;185.85;;;18.30;44.30;;;;;;4457243;59;21816;-34
2021/01/21 00:28:32;;;;;;;243.23;185.68;;;18.30;44.10;;;;;;4460385;59;21097;-35
2021/01/21 00:33:33;;;;;;;246.30;185.90;;;18.30;44.10;;;;;;4441425;59;21150;-36
2021/01/21 00:38:34;;;;;;;237.88;177.55;;;18.20;44.10;;;;;;4513053;59;21130;-30
2021/01/21 00:43:35;;;;;;;244.37;183.82;;;18.30;44.10;;;;;;4440143;63;21651;-34
2021/01/21 00:48:36;;;;;;;235.88;174.07;;;18.30;44.10;;;;;;4441468;59;21057;-32
2021/01/21 00:53:37;;;;;;;236.05;179.93;;;18.20;44.00;;;;;;4445445;59;21061;-34
2021/01/21 00:58:38;;;;;;;233.35;175.30;;;18.20;43.90;;;;;;4472211;59;21065;-34
2021/01/21 01:03:39;;;;;;;230.32;172.18;;;18.20;43.70;;;;;;4473712;58;21612;-31
2021/01/21 01:08:40;;;;;;;229.20;171.37;;;18.20;43.70;;;;;;4441079;63;21045;-36
2021/01/21 01:13:40;;;;;;;231.65;177.35;;;18.20;43.80;;;;;;4450842;59;21066;-38
2021/01/21 01:18:41;;;;;;;227.82;166.80;;;18.20;43.70;;;;;;4452929;59;21631;-30
2021/01/21 01:23:42;;;;;;;227.00;166.68;;;18.20;43.70;;;;;;4453826;59;21058;-33
2021/01/21 01:28:43;;;;;;;225.55;167.25;;;18.20;43.70;;;;;;4458943;59;21130;-30
2021/01/21 01:33:44;;;;;;;225.00;166.80;;;18.20;43.70;;;;;;4463256;59;21233;-29
2021/01/21 01:38:45;;;;;;;225.43;164.40;;;18.20;43.70;;;;;;4445966;59;21089;-24
2021/01/21 01:43:48;;;;;;;220.63;166.75;;;18.20;43.70;;;;;;4452641;59;21677;-32
2021/01/21 01:48:49;;;;;;;224.45;168.98;;;18.20;43.80;;;;;;4451556;59;21523;-28
2021/01/21 01:53:50;;;;;;;219.35;166.55;;;18.20;43.50;;;;;;4456717;59;21110;-34
2021/01/21 01:58:53;;;;;;;216.00;160.00;;;18.20;43.70;;;;;;4449835;59;21053;-34
2021/01/21 02:03:54;;;;;;;217.15;164.75;;;18.20;43.60;;;;;;4449229;59;21129;-31
2021/01/21 02:08:57;;;;;;;215.75;163.98;;;18.20;43.60;;;;;;4454797;59;21587;-29
2021/01/21 02:14:06;;;;;;;214.57;157.93;;;18.20;43.50;;;;;;4458841;59;21050;-33
2021/01/21 02:20:45;;;;;;;211.60;155.93;;;18.20;43.50;;;;;;4457549;59;21041;-34
2021/01/21 02:26:26;;;;;;;212.98;157.20;;;18.20;43.50;;;;;;4440907;63;21622;-32
2021/01/21 02:32:09;;;;;;;211.12;155.65;;;18.20;43.30;;;;;;4441846;59;21070;-36
2021/01/21 02:37:25;;;;;;;210.65;155.37;;;18.20;43.40;;;;;;4457978;59;21091;-30
2021/01/21 02:42:26;;;;;;;213.25;155.82;;;18.20;43.40;;;;;;4451707;59;21041;-35
2021/01/21 02:47:27;;;;;;;205.70;151.00;;;18.20;43.30;;;;;;4467282;59;21093;-36
2021/01/21 02:52:45;;;;;;;212.32;158.57;;;18.20;43.50;;;;;;4453868;59;21547;-27
2021/01/21 03:01:17;;;;;;;;;;;18.20;43.30;;;;;;4443475;63;21126;-32
2021/01/21 03:06:20;;;;;;;194.13;144.15;;;18.20;43.30;;;;;;4443674;59;20122;-38
2021/01/21 03:11:21;;;;;;;189.65;139.45;;;18.20;43.30;;;;;;4440905;60;21049;-36
2021/01/21 03:16:22;;;;;;;201.43;148.18;;;18.20;43.30;;;;;;4494707;59;21081;-32
2021/01/21 03:21:23;;;;;;;190.77;140.73;;;18.20;43.30;;;;;;4443328;59;21098;-36
2021/01/21 03:26:23;;;;;;;187.95;138.93;;;18.20;43.20;;;;;;4471641;59;21285;-30
2021/01/21 03:31:24;;;;;;;189.05;140.35;;;18.20;43.30;;;;;;4443751;59;21061;-35
2021/01/21 03:36:25;;;;;;;186.68;137.15;;;18.20;43.20;;;;;;4445398;59;21110;-35
2021/01/21 03:41:26;;;;;;;185.40;136.55;;;18.20;43.00;;;;;;4451480;59;21054;-35
2021/01/21 03:46:27;;;;;;;187.95;141.55;;;18.20;43.10;;;;;;4446722;59;21110;-25
2021/01/21 03:51:28;;;;;;;179.80;136.55;;;18.20;43.10;;;;;;4444324;59;21170;-30
2021/01/21 03:56:29;;;;;;;174.27;128.25;;;18.20;43.20;;;;;;4444325;59;21604;-36
2021/01/21 04:01:30;;;;;;;179.75;136.57;;;18.20;43.00;;;;;;4440667;59;21069;-36
2021/01/21 04:06:31;;;;;;;183.77;136.73;;;18.20;43.00;;;;;;4445695;59;21129;-30
2021/01/21 04:11:32;;;;;;;173.57;131.40;;;18.10;42.80;;;;;;4445740;59;21556;-28
2021/01/21 04:16:33;;;;;;;171.02;128.12;;;18.20;43.00;;;;;;4488880;59;21053;-41
2021/01/21 04:21:33;;;;;;;166.65;128.07;;;18.20;42.80;;;;;;4461619;59;21093;-37
2021/01/21 04:26:34;;;;;;;170.32;126.87;;;18.20;42.90;;;;;;4445625;59;21050;-32
2021/01/21 04:31:35;;;;;;;169.55;130.20;;;18.20;43.00;;;;;;4462674;59;21079;-35
2021/01/21 04:36:36;;;;;;;174.68;129.93;;;18.20;42.90;;;;;;4446462;59;21054;-35
2021/01/21 04:41:37;;;;;;;169.55;126.28;;;18.10;42.90;;;;;;4446171;59;21575;-28
2021/01/21 04:46:39;;;;;;;162.48;120.20;;;18.20;43.00;;;;;;4447706;59;21121;-35
2021/01/21 04:51:41;;;;;;;162.32;122.82;;;18.20;42.90;;;;;;4453498;59;21092;-36
2021/01/21 04:56:47;;;;;;;157.23;120.72;;;18.20;42.90;;;;;;4487680;59;21085;-33
2021/01/21 05:01:48;;;;;;;163.18;124.03;;;18.10;42.90;;;;;;4447271;59;21105;-23
2021/01/21 05:06:51;;;;;;;160.57;120.22;;;18.20;42.80;;;;;;4458556;59;21062;-27
2021/01/21 05:11:52;;;;;;;159.23;119.53;;;18.10;42.70;;;;;;4442199;59;21109;-27
2021/01/21 05:16:53;;;;;;;157.18;119.03;;;18.10;42.90;;;;;;4448751;59;21575;-27
2021/01/21 05:21:54;;;;;;;152.93;116.43;;;18.10;42.90;;;;;;4462640;59;21053;-31
2021/01/21 05:26:55;;;;;;;155.73;118.03;;;18.10;42.90;;;;;;4464119;59;21647;-28
2021/01/21 05:31:56;;;;;;;157.50;116.82;;;18.10;42.80;;;;;;4473044;59;21603;-28
2021/01/21 05:36:57;;;;;;;154.52;117.70;;;18.20;42.90;;;;;;4464069;59;21069;-34
2021/01/21 05:41:59;;;;;;;145.48;111.30;;;18.10;42.80;;;;;;4447663;59;21041;-31
2021/01/21 05:47:02;;;;;;;147.40;111.00;;;18.10;42.80;;;;;;4440802;59;21535;-28
2021/01/21 05:52:07;;;;;;;137.88;106.20;;;18.10;42.90;;;;;;4453932;59;21185;-28
2021/01/21 05:57:09;;;;;;;144.57;110.55;;;18.10;42.70;;;;;;4446781;59;21151;-24
2021/01/21 06:02:10;;;;;;;142.65;111.37;;;18.10;42.80;;;;;;4446971;59;21547;-30
2021/01/21 06:07:11;;;;;;;139.75;105.68;;;18.10;42.90;;;;;;4440967;63;21523;-28
2021/01/21 06:12:13;;;;;;;137.45;104.03;;;18.10;43.10;;;;;;4449903;59;21142;-31
2021/01/21 06:17:14;;;;;;;141.10;106.80;;;18.10;43.10;;;;;;4440566;63;21626;-36
2021/01/21 06:22:19;;;;;;;139.75;106.93;;;18.10;43.40;;;;;;4443069;59;21056;-33
2021/01/21 06:27:24;;;;;;;140.23;106.22;;;18.10;43.30;;;;;;4444890;59;21041;-29
2021/01/21 06:32:37;;;;;;;134.90;101.43;;;18.10;43.30;;;;;;4439973;63;21113;-33
2021/01/21 06:37:40;;;;;;;137.37;105.55;;;18.10;43.20;;;;;;4460443;59;21572;-26
2021/01/21 06:43:31;;;;;;;131.10;100.28;;;18.10;43.30;;;;;;4498095;59;21038;-33
2021/01/21 06:48:33;;;;;;;133.50;103.03;;;18.10;43.30;;;;;;4450551;59;21058;-31
2021/01/21 06:53:35;;;;;;;130.77;99.65;;;18.10;43.30;;;;;;4453253;59;21101;-33
2021/01/21 06:58:53;;;;;;;131.75;100.35;;;18.10;43.40;;;;;;4457699;59;21135;-33
2021/01/21 07:03:54;;;;;;;136.02;104.90;;;18.10;43.10;;;;;;4444360;59;21516;-31
2021/01/21 07:09:08;;;;;;;132.02;101.10;;;18.10;43.30;;;;;;4450725;59;21985;-32
2021/01/21 07:14:10;;;;;;;129.55;99.35;;;18.10;43.30;;;;;;4466498;59;21061;-28
2021/01/21 07:25:12;;;;;;;124.55;93.47;;;18.10;43.30;;;;;;4460092;59;21045;-35
2021/01/21 07:30:21;;;;;;;131.95;103.47;;;18.10;43.00;;;;;;4440675;63;21090;-32
2021/01/21 07:36:31;;;;;;;128.52;97.97;;;18.10;43.20;;;;;;4440621;59;21404;-29
2021/01/21 07:44:10;;;;;;;130.40;99.95;;;18.10;43.30;;;;;;4468965;59;21038;-27
2021/01/21 07:49:24;;;;;;;137.52;103.55;;;18.10;43.00;;;;;;4445140;59;21033;-31
2021/01/21 07:54:28;;;;;;;132.37;101.45;;;18.10;43.10;;;;;;4460563;59;21339;-25
2021/01/21 07:59:29;;;;;;;134.10;103.78;;;18.10;43.10;;;;;;4443596;59;21152;-34
2021/01/21 08:04:30;;;;;;;143.10;108.72;;;18.10;43.10;;;;;;4443328;59;21162;-26
2021/01/21 08:09:31;;;;;;;134.35;102.80;;;18.10;43.10;;;;;;4439260;59;21058;-25
2021/01/21 08:14:32;;;;;;;134.73;103.93;;;18.20;43.40;;;;;;4442655;59;21026;-33
2021/01/21 08:19:39;;;;;;;141.77;109.05;;;18.20;43.80;;;;;;4440173;63;21508;-32
2021/01/21 08:28:18;;;;;;;137.00;104.25;;;18.20;44.00;;;;;;4442668;59;22210;-29
2021/01/21 08:33:26;;;;;;;139.62;108.70;;;18.30;44.30;;;;;;4473584;59;21594;-29
2021/01/21 08:38:30;;;;;;;146.37;109.82;;;18.40;44.70;;;;;;4466223;59;21460;-33
2021/01/21 08:43:32;;;;;;;146.55;111.12;;;18.40;44.80;;;;;;4447608;59;21550;-30
2021/01/21 08:48:34;;;;;;;153.20;116.40;;;18.40;44.90;;;;;;4442093;59;21054;-37
2021/01/21 08:53:35;;;;;;;143.10;110.57;;;18.50;45.10;;;;;;4468019;59;21130;-33
2021/01/21 08:58:36;;;;;;;150.73;113.30;;;18.40;45.20;;;;;;4444767;59;21037;-30
2021/01/21 09:03:50;;;;;;;153.85;117.03;;;18.50;45.40;;;;;;4450760;59;21591;-29
2021/01/21 09:08:57;;;;;;;147.98;112.40;;;18.60;46.10;;;;;;4439293;63;21567;-30
2021/01/21 09:13:59;;;;;;;151.20;116.18;;;18.70;46.60;;;;;;4445114;59;21161;-28
2021/01/21 09:19:00;;;;;;;154.20;118.85;;;18.80;46.70;;;;;;4439841;59;21138;-29
2021/01/21 09:24:12;;;;;;;151.95;113.88;;;18.80;46.70;;;;;;4439987;63;21230;-28
2021/01/21 09:29:13;;;;;;;155.37;116.78;;;18.90;47.10;;;;;;4441912;59;21138;-35
2021/01/21 09:34:13;;;;;;;161.37;123.20;;;18.90;47.30;;;;;;4440804;59;21569;-31
2021/01/21 09:39:14;;;;;;;167.32;123.62;;;19.00;47.40;;;;;;4439547;59;21077;-33
2021/01/21 09:44:15;;;;;;;164.15;124.07;;;19.00;47.60;;;;;;4448180;59;21177;-31
2021/01/21 09:49:16;;;;;;;178.40;128.93;;;19.10;47.70;;;;;;4439972;63;21058;-35
2021/01/21 09:54:17;;;;;;;186.00;135.32;;;19.10;48.00;;;;;;4447700;59;21113;-33
2021/01/21 09:59:18;;;;;;;180.43;134.63;;;19.10;47.80;;;;;;4451226;59;21231;-26
2021/01/21 10:04:19;;;;;;;186.95;135.93;;;19.00;47.80;;;;;;4442986;59;21514;-36
2021/01/21 10:09:20;;;;;;;189.43;139.50;;;19.00;47.90;;;;;;4458736;59;21117;-32
2021/01/21 10:14:21;;;;;;;190.70;142.95;;;19.00;47.90;;;;;;4448898;59;21066;-33
2021/01/21 10:19:22;;;;;;;194.77;138.85;;;19.00;48.00;;;;;;4448872;59;21125;-27
2021/01/21 10:24:23;;;;;;;191.52;143.25;;;19.00;48.00;;;;;;4475578;59;21164;-33
2021/01/21 10:29:24;;;;;;;178.80;135.52;;;19.00;48.00;;;;;;4474843;59;21106;-31
2021/01/21 10:34:24;;;;;;;193.10;145.70;;;19.10;48.60;;;;;;4444763;59;21627;-32
2021/01/21 10:39:25;;;;;;;191.77;144.62;;;19.00;48.10;;;;;;4481575;59;21599;-26
2021/01/21 10:44:26;;;;;;;190.02;140.30;;;19.10;48.20;;;;;;4439697;63;21053;-29
2021/01/21 10:49:27;;;;;;;194.02;141.18;;;19.10;48.70;;;;;;4444954;59;21090;-29
2021/01/21 10:54:28;;;;;;;194.00;144.02;;;19.10;48.70;;;;;;4458203;59;21637;-28
2021/01/21 10:59:29;;;;;;;190.88;139.93;;;19.20;48.90;;;;;;4451666;59;21121;-34
2021/01/21 11:04:30;;;;;;;196.48;141.60;;;19.20;49.10;;;;;;4438421;63;21070;-24
2021/01/21 11:09:37;;;;;;;188.10;140.45;;;19.20;49.30;;;;;;4451384;59;21515;-31
2021/01/21 11:14:38;;;;;;;199.50;150.17;;;19.20;49.30;;;;;;4456255;59;21154;-24
2021/01/21 11:19:39;;;;;;;191.37;140.62;;;19.20;49.50;;;;;;4460392;59;21120;-31
2021/01/21 11:24:40;;;;;;;196.80;144.52;;;19.30;49.80;;;;;;4444747;59;21731;-25
2021/01/21 11:29:41;;;;;;;186.90;138.60;;;19.30;49.70;;;;;;4445172;59;21097;-30
2021/01/21 11:34:42;;;;;;;190.50;140.35;;;19.30;50.10;;;;;;4439705;63;21126;-29
2021/01/21 11:39:43;;;;;;;199.15;148.23;;;19.30;50.20;;;;;;4439899;63;22465;-30
2021/01/21 11:44:43;;;;;;;190.93;142.93;;;19.30;50.20;;;;;;4439265;63;21058;-30
2021/01/21 11:49:45;;;;;;;178.77;135.18;;;19.30;50.40;;;;;;4471596;59;21496;-26
2021/01/21 11:54:45;;;;;;;188.20;142.98;;;19.40;50.70;;;;;;4446773;59;21078;-30
2021/01/21 11:59:46;;;;;;;184.82;139.12;;;19.40;50.80;;;;;;4482879;59;21084;-27
2021/01/21 12:04:47;;;;;;;185.95;139.25;;;19.40;51.00;;;;;;4445771;59;21066;-28
2021/01/21 12:09:48;;;;;;;179.98;135.70;;;19.40;51.00;;;;;;4440616;60;21517;-29
2021/01/21 12:14:49;;;;;;;182.43;138.68;;;19.50;51.20;;;;;;4445929;59;21086;-31
2021/01/21 12:19:50;;;;;;;175.07;133.85;;;19.50;51.20;;;;;;4488846;59;21085;-28
2021/01/21 12:24:51;;;;;;;183.57;137.73;;;19.50;51.30;;;;;;4448044;59;21547;-24
2021/01/21 12:29:52;;;;;;;177.10;134.23;;;19.50;51.40;;;;;;4470004;59;21118;-29
2021/01/21 12:34:53;;;;;;;187.12;144.43;;;19.60;51.70;;;;;;4439144;60;22600;-26
2021/01/21 12:39:54;;;;;;;192.82;144.57;;;19.50;51.70;;;;;;4456424;59;21058;-32
2021/01/21 12:44:54;;;;;;;202.23;148.60;;;19.50;52.00;;;;;;4448159;59;21575;-35
2021/01/21 12:49:55;;;;;;;193.60;146.80;;;19.60;51.50;;;;;;4445655;59;21118;-32
2021/01/21 12:54:58;;;;;;;188.35;144.43;;;19.40;51.50;;;;;;4450454;59;21624;-36
2021/01/21 12:59:58;;;;;;;187.10;142.68;;;19.30;51.40;;;;;;4438477;59;21089;-33
2021/01/21 13:04:59;;;;;;;189.85;145.10;;;19.30;51.30;;;;;;4468171;59;21066;-32
2021/01/21 13:10:00;;;;;;;186.57;141.20;;;19.30;51.20;;;;;;4439494;63;21114;-34
2021/01/21 13:15:01;;;;;;;174.75;133.07;;;19.20;50.90;;;;;;4449357;59;21081;-37
2021/01/21 13:20:03;;;;;;;177.82;137.35;;;19.20;50.80;;;;;;4451969;59;21073;-25
2021/01/21 13:25:05;;;;;;;181.27;141.27;;;19.30;51.00;;;;;;4463183;59;21130;-30
2021/01/21 13:30:07;;;;;;;178.50;133.93;;;19.30;51.00;;;;;;4442333;59;21727;-25
2021/01/21 13:35:08;;;;;;;172.65;131.35;;;19.30;51.20;;;;;;4476619;59;21226;-28
2021/01/21 13:40:10;;;;;;;184.87;139.27;;;19.40;51.30;;;;;;4439728;63;21129;-33
2021/01/21 13:45:11;;;;;;;169.98;131.98;;;19.40;51.30;;;;;;4452694;59;21121;-32
2021/01/21 13:50:13;;;;;;;174.23;133.18;;;19.40;51.60;;;;;;4444934;59;21042;-29
2021/01/21 13:55:14;;;;;;;167.05;126.32;;;19.40;51.70;;;;;;4439985;60;21622;-31
2021/01/21 14:00:16;;;;;;;172.10;129.05;;;19.40;51.70;;;;;;4440565;59;21073;-28
2021/01/21 14:05:16;;;;;;;168.45;128.75;;;19.40;51.80;;;;;;4477063;59;21571;-29
2021/01/21 14:10:18;;;;;;;166.68;128.62;;;19.40;52.00;;;;;;4505807;59;21122;-28
2021/01/21 14:15:19;;;;;;;167.37;130.82;;;19.50;52.20;;;;;;4450381;59;21062;-31
2021/01/21 14:20:19;;;;;;;172.57;133.77;;;19.50;52.20;;;;;;4466265;59;21042;-31
2021/01/21 14:25:20;;;;;;;168.57;128.77;;;19.50;52.30;;;;;;4452458;59;21108;-32
2021/01/21 14:30:22;;;;;;;157.40;125.43;;;19.50;52.40;;;;;;4524774;59;21618;-30
2021/01/21 14:35:23;;;;;;;169.77;128.62;;;19.50;52.50;;;;;;4454508;59;21073;-25
2021/01/21 14:40:26;;;;;;;161.20;126.87;;;19.60;52.60;;;;;;4457165;59;21580;-34
2021/01/21 14:45:27;;;;;;;154.75;123.65;;;19.50;52.40;;;;;;4463927;59;21539;-34
2021/01/21 14:50:28;;;;;;;157.43;122.60;;;19.50;52.30;;;;;;4452009;59;21123;-32
2021/01/21 14:55:29;;;;;;;156.98;122.40;;;19.50;52.30;;;;;;4443697;59;21552;-27
2021/01/21 15:00:30;;;;;;;158.63;125.50;;;19.50;52.30;;;;;;4443480;59;21109;-29
2021/01/21 15:05:31;;;;;;;155.70;121.43;;;19.50;52.30;;;;;;4440332;59;21050;-28
2021/01/21 15:10:31;;;;;;;159.70;127.28;;;19.50;52.30;;;;;;4446476;59;21066;-27
2021/01/21 15:15:32;;;;;;;154.73;122.20;;;19.40;53.00;;;;;;4457880;59;21141;-31
2021/01/21 15:20:33;;;;;;;161.80;127.15;;;19.40;52.40;;;;;;4444170;59;21098;-33
2021/01/21 15:25:34;;;;;;;154.15;123.70;;;19.40;52.40;;;;;;4491608;59;21114;-29
2021/01/21 15:30:36;;;;;;;154.95;119.75;;;19.40;52.40;;;;;;4447952;59;21395;-32
2021/01/21 15:35:37;;;;;;;157.05;125.43;;;19.40;52.30;;;;;;4442703;59;21077;-32
2021/01/21 15:40:38;;;;;;;159.80;127.70;;;19.40;52.40;;;;;;4455769;59;21050;-24
2021/01/21 15:45:39;;;;;;;162.68;127.47;;;19.40;52.40;;;;;;4440224;63;21064;-30
2021/01/21 15:50:40;;;;;;;157.05;122.40;;;19.40;52.30;;;;;;4445018;59;21042;-31
2021/01/21 15:55:42;;;;;;;154.73;120.13;;;19.40;52.30;;;;;;4449434;59;21133;-32
2021/01/21 16:00:42;;;;;;;160.05;125.50;;;19.40;52.30;;;;;;4443000;59;21093;-35
2021/01/21 16:05:43;;;;;;;160.98;128.25;;;19.30;52.20;;;;;;4441522;59;21639;-36
2021/01/21 16:10:44;;;;;;;164.57;129.45;;;19.30;52.30;;;;;;4444419;59;21037;-35
2021/01/21 16:15:45;;;;;;;166.77;129.68;;;19.20;52.20;;;;;;4457234;59;21137;-31
2021/01/21 16:20:46;;;;;;;171.37;131.57;;;19.20;52.10;;;;;;4445790;59;21036;-32
2021/01/21 16:25:47;;;;;;;163.60;129.87;;;19.10;52.00;;;;;;4440894;63;21053;-31
2021/01/21 16:30:50;;;;;;;161.37;126.15;;;19.10;51.90;;;;;;4447154;59;21080;-29
2021/01/21 16:35:51;;;;;;;169.57;133.12;;;19.00;51.80;;;;;;4481696;59;21599;-32
2021/01/21 16:40:52;;;;;;;156.82;126.62;;;19.00;51.70;;;;;;4474328;59;21150;-30
2021/01/21 16:45:53;;;;;;;169.45;133.12;;;19.00;51.70;;;;;;4458703;59;21034;-25
2021/01/21 16:50:54;;;;;;;163.93;130.07;;;19.00;51.60;;;;;;4460406;59;21527;-29
2021/01/21 16:55:55;;;;;;;168.55;134.10;;;18.90;51.50;;;;;;4444654;59;21050;-27
2021/01/21 17:00:56;;;;;;;174.35;136.75;;;18.90;51.50;;;;;;4449337;59;21110;-35
2021/01/21 17:05:57;;;;;;;174.10;136.65;;;18.90;51.30;;;;;;4441093;63;21500;-34
2021/01/21 17:10:57;;;;;;;171.18;133.57;;;18.90;51.20;;;;;;4480751;59;21046;-25
2021/01/21 17:15:59;;;;;;;172.35;136.98;;;18.90;51.30;;;;;;4449137;59;21637;-29
2021/01/21 17:21:00;;;;;;;178.48;140.45;;;18.90;51.10;;;;;;4440295;63;21128;-28
2021/01/21 17:26:00;;;;;;;179.90;139.52;;;18.80;51.10;;;;;;4446927;59;21100;-25
2021/01/21 17:31:02;;;;;;;169.68;131.87;;;18.80;51.00;;;;;;4465673;59;21042;-34
2021/01/21 17:36:03;;;;;;;181.02;141.80;;;18.80;50.90;;;;;;4452977;59;21026;-29
2021/01/21 17:41:04;;;;;;;180.20;140.43;;;18.80;50.80;;;;;;4445397;59;21062;-24
2021/01/21 17:46:04;;;;;;;181.52;144.62;;;18.80;50.70;;;;;;4440645;63;21588;-27
2021/01/21 17:51:06;;;;;;;187.82;146.43;;;18.80;50.70;;;;;;4440165;63;21139;-34
2021/01/21 17:56:07;;;;;;;180.07;140.98;;;18.80;50.60;;;;;;4466923;59;21192;-30
2021/01/21 18:01:08;;;;;;;188.95;145.02;;;18.70;50.50;;;;;;4443093;59;21138;-29
2021/01/21 18:06:09;;;;;;;185.85;145.00;;;18.70;50.50;;;;;;4449099;59;21094;-26
2021/01/21 18:11:10;;;;;;;184.73;145.60;;;18.70;50.40;;;;;;4447803;59;21102;-37
2021/01/21 18:16:11;;;;;;;190.65;147.93;;;18.70;50.30;;;;;;4457080;59;21082;-33
2021/01/21 18:21:14;;;;;;;196.27;152.70;;;18.70;50.30;;;;;;4459315;59;21168;-35
2021/01/21 18:26:15;;;;;;;197.85;152.38;;;18.70;50.30;;;;;;4476826;59;21552;-32
2021/01/21 18:31:19;;;;;;;191.18;147.27;;;18.70;50.20;;;;;;4442343;59;21073;-33
2021/01/21 18:36:20;;;;;;;196.68;152.12;;;18.70;50.10;;;;;;4451618;59;21528;-27
2021/01/21 18:41:21;;;;;;;198.95;153.90;;;18.70;50.80;;;;;;4440546;63;21130;-30
2021/01/21 18:46:22;;;;;;;200.52;156.05;;;18.70;50.10;;;;;;4458232;59;21034;-30
2021/01/21 18:51:23;;;;;;;197.00;151.80;;;18.70;50.00;;;;;;4441802;59;22200;-35
2021/01/21 18:56:24;;;;;;;198.55;153.43;;;18.70;49.90;;;;;;4439546;60;21197;-25
2021/01/21 19:01:25;;;;;;;202.70;159.73;;;18.70;50.60;;;;;;4470348;59;21575;-26
2021/01/21 19:06:25;;;;;;;208.90;161.32;;;18.70;49.90;;;;;;4456588;59;21137;-32
2021/01/21 19:11:26;;;;;;;196.73;153.30;;;18.70;49.80;;;;;;4463905;59;21516;-24
2021/01/21 19:16:27;;;;;;;208.45;162.75;;;18.70;49.70;;;;;;4458444;59;21064;-25
2021/01/21 19:21:28;;;;;;;210.52;161.75;;;18.60;49.60;;;;;;4450279;59;21050;-30
2021/01/21 19:26:29;;;;;;;201.50;158.75;;;18.60;49.60;;;;;;4459642;59;21069;-26
2021/01/21 19:31:30;;;;;;;210.90;164.45;;;18.60;49.60;;;;;;4452523;59;21113;-33
2021/01/21 19:36:31;;;;;;;200.00;152.07;;;18.70;49.60;;;;;;4446968;59;21066;-25
2021/01/21 19:41:33;;;;;;;195.93;150.52;;;18.70;49.60;;;;;;4462214;59;21568;-30
2021/01/21 19:46:34;;;;;;;202.32;159.32;;;18.70;49.50;;;;;;4467334;59;21156;-25
2021/01/21 19:51:35;;;;;;;209.65;166.70;;;18.60;49.40;;;;;;4440497;63;21118;-30
2021/01/21 19:56:36;;;;;;;209.80;162.62;;;18.60;49.40;;;;;;4460537;59;21607;-30
2021/01/21 20:01:37;;;;;;;203.57;159.12;;;18.60;49.40;;;;;;4440560;59;21180;-28
2021/01/21 20:06:39;;;;;;;209.27;162.60;;;18.60;49.40;;;;;;4454299;59;21130;-29
2021/01/21 20:11:40;;;;;;;213.15;169.00;;;18.60;49.40;;;;;;4445604;59;21536;-33
2021/01/21 20:16:42;;;;;;;215.02;173.00;;;18.60;49.40;;;;;;4449370;59;21077;-30
2021/01/21 20:21:44;;;;;;;209.80;162.10;;;18.60;49.30;;;;;;4458427;59;21062;-35
2021/01/21 20:26:45;;;;;;;207.30;162.35;;;18.60;49.40;;;;;;4465301;59;21531;-29
2021/01/21 20:31:46;;;;;;;209.98;161.25;;;18.60;49.30;;;;;;4452625;59;21149;-32
2021/01/21 20:36:46;;;;;;;210.10;164.52;;;18.60;49.30;;;;;;4440171;63;21097;-31
2021/01/21 20:41:47;;;;;;;217.77;169.77;;;18.60;49.30;;;;;;4440417;63;21046;-33
2021/01/21 20:46:48;;;;;;;214.45;168.93;;;18.60;49.30;;;;;;4440194;63;21118;-34
2021/01/21 20:51:49;;;;;;;211.43;168.48;;;18.60;49.20;;;;;;4461823;59;21569;-32
2021/01/21 20:56:50;;;;;;;207.48;162.95;;;18.60;49.20;;;;;;4444316;59;21061;-28
2021/01/21 21:01:50;;;;;;;208.43;164.30;;;18.60;49.10;;;;;;4454318;59;21598;-25
2021/01/21 21:06:54;;;;;;;220.12;170.73;;;18.60;49.10;;;;;;4453621;59;21066;-29
2021/01/21 21:11:55;;;;;;;215.52;167.87;;;18.60;49.10;;;;;;4473156;59;21050;-28
2021/01/21 21:16:56;;;;;;;207.50;161.05;;;18.60;49.10;;;;;;4456671;59;21065;-31
2021/01/21 21:21:57;;;;;;;209.32;161.27;;;18.60;49.00;;;;;;4449384;59;21053;-32
2021/01/21 21:26:58;;;;;;;208.43;162.52;;;18.60;49.10;;;;;;4443040;59;21580;-31
2021/01/21 21:31:59;;;;;;;211.75;165.05;;;18.60;49.00;;;;;;4464143;59;21139;-32
2021/01/21 21:36:59;;;;;;;203.77;157.77;;;18.60;48.90;;;;;;4478128;59;21109;-29
2021/01/21 21:42:00;;;;;;;209.82;162.27;;;18.60;48.90;;;;;;4466570;59;21170;-32
2021/01/21 21:47:01;;;;;;;212.48;165.07;;;18.60;48.90;;;;;;4446730;59;21121;-26
2021/01/21 21:52:02;;;;;;;214.63;167.77;;;18.60;48.50;;;;;;4451348;59;21058;-24
2021/01/21 21:57:03;;;;;;;214.35;165.85;;;18.60;48.80;;;;;;4439629;63;21111;-29
2021/01/21 22:02:04;;;;;;;212.18;166.75;;;18.60;48.80;;;;;;4457639;59;21070;-24
2021/01/21 22:07:09;;;;;;;210.65;165.70;;;18.60;48.80;;;;;;4461285;59;21014;-25
2021/01/21 22:12:11;;;;;;;200.15;157.65;;;18.60;48.80;;;;;;4456510;59;22071;-36
2021/01/21 22:17:11;;;;;;;197.43;151.02;;;18.60;48.80;;;;;;4446933;59;21149;-28
2021/01/21 22:22:12;;;;;;;199.75;152.32;;;18.60;48.80;;;;;;4445497;59;21598;-28
2021/01/21 22:27:13;;;;;;;208.75;163.40;;;18.60;48.80;;;;;;4451346;59;22062;-30
2021/01/21 22:32:14;;;;;;;204.90;162.02;;;18.60;48.70;;;;;;4464857;59;21078;-30
2021/01/21 22:37:15;;;;;;;200.32;154.65;;;18.60;48.80;;;;;;4445107;59;22075;-30
2021/01/21 22:42:16;;;;;;;207.77;163.60;;;18.60;48.70;;;;;;4440904;63;21300;-35
2021/01/21 22:47:17;;;;;;;196.32;153.80;;;18.60;48.60;;;;;;4453091;59;21073;-36
2021/01/21 22:52:18;;;;;;;206.43;162.12;;;18.50;48.50;;;;;;4445835;59;22074;-33
2021/01/21 22:57:19;;;;;;;195.15;151.68;;;18.60;48.70;;;;;;4460596;59;21133;-34
2021/01/21 23:02:20;;;;;;;203.85;160.15;;;18.60;48.70;;;;;;4453161;59;21069;-26
2021/01/21 23:07:21;;;;;;;196.43;152.90;;;18.50;48.50;;;;;;4446963;59;21123;-35
2021/01/21 23:12:22;;;;;;;200.35;156.73;;;18.50;48.40;;;;;;4452402;59;22389;-36
2021/01/21 23:17:23;;;;;;;198.80;152.82;;;18.50;48.40;;;;;;4456358;59;21679;-36
2021/01/21 23:22:24;;;;;;;195.02;151.15;;;18.50;48.30;;;;;;4449120;59;21508;-35
2021/01/21 23:27:25;;;;;;;191.60;147.00;;;18.50;48.30;;;;;;4444326;59;21085;-33
2021/01/21 23:32:26;;;;;;;192.62;148.65;;;18.50;48.30;;;;;;4459459;59;21041;-32
2021/01/21 23:37:27;;;;;;;197.23;152.23;;;18.50;48.20;;;;;;4457201;59;21058;-33
2021/01/21 23:42:28;;;;;;;197.05;152.98;;;18.50;48.30;;;;;;4469647;59;21786;-33
2021/01/21 23:47:28;;;;;;;197.62;151.40;;;18.50;48.30;;;;;;4455626;59;21057;-25
2021/01/21 23:52:29;;;;;;;197.98;150.60;;;18.50;48.20;;;;;;4453226;59;22682;-26
2021/01/21 23:57:30;;;;;;;191.15;147.50;;;18.50;48.70;;;;;;4441499;59;21535;-30
